WINNIPESAUKEE R @ TILTON: From 01/10/2019 02:00 to 01/24/2019 08:00

Date STAGE [FT] FLOW [CFS] AIR TEMPERATURE [DEGF]
01/24/2019 03:00 4.26 1050.0 32.5
01/24/2019 02:00 4.26 1050.0 32.5
01/24/2019 01:00 4.26 1050.0 32.3
01/24/2019 00:00 4.26 1050.0 31.5
01/23/2019 23:00 4.25 1050.0 30.8
01/23/2019 22:00 4.26 1050.0 29.8
01/23/2019 21:00 4.25 1050.0 29.0
01/23/2019 20:00 4.26 1050.0 28.9
01/23/2019 19:00 4.26 1050.0 28.9
01/23/2019 18:00 4.27 1060.0 30.2
01/23/2019 17:00 4.26 1050.0 31.4
01/23/2019 16:00 4.26 1050.0 31.8
01/23/2019 15:00 4.25 1050.0 33.1
01/23/2019 14:00 4.26 1050.0 32.7
01/23/2019 13:00 4.26 1050.0 31.5
01/23/2019 12:00 4.27 1060.0 29.5
01/23/2019 11:00 4.27 1060.0 24.7
01/23/2019 10:00 4.27 1060.0 21.7
01/23/2019 09:00 4.27 1060.0 19.4
01/23/2019 08:00 4.27 1060.0 16.6
01/23/2019 07:00 4.28 1060.0 15.9
01/23/2019 06:00 4.27 1060.0 15.3
01/23/2019 05:00 4.26 1050.0 14.0
01/23/2019 04:00 4.28 1060.0 12.8
01/23/2019 03:00 4.27 1060.0 12.1
01/23/2019 02:00 4.28 1060.0 12.5
01/23/2019 01:00 4.29 1070.0 13.6
01/23/2019 00:00 4.26 1050.0 14.8
01/22/2019 23:00 4.28 1060.0 14.2
01/22/2019 22:00 4.27 1060.0 13.4
01/22/2019 21:00 4.28 1060.0 13.5
01/22/2019 20:00 4.29 1070.0 12.7
01/22/2019 19:00 4.29 1070.0 11.7
01/22/2019 18:00 4.32 1090.0 14.8
01/22/2019 17:00 4.32 1090.0 16.7
01/22/2019 16:00 4.34 1100.0 18.5
01/22/2019 15:00 4.35 1100.0 19.7
01/22/2019 14:00 4.40 1130.0 19.1
01/22/2019 13:00 4.84 1400.0 18.1
01/22/2019 12:00 4.76 1350.0 16.3
01/22/2019 11:00 4.65 1280.0 12.5
01/22/2019 10:00 4.59 1250.0 10.5
01/22/2019 09:00 4.58 1240.0 7.1
01/22/2019 08:00 4.57 1230.0 0.9
01/22/2019 07:00 4.56 1230.0 -1.1
01/22/2019 06:00 4.57 1230.0 0.2
01/22/2019 05:00 4.58 1240.0 0.5
01/22/2019 04:00 4.57 1230.0 0.4
01/22/2019 03:00 4.59 1250.0 0.0
01/22/2019 02:00 4.58 1240.0 0.5
01/22/2019 01:00 4.59 1250.0 0.7
01/22/2019 00:00 4.58 1240.0 1.1
01/21/2019 23:00 4.57 1230.0 1.2
01/21/2019 22:00 4.59 1250.0 1.7
01/21/2019 21:00 4.58 1240.0 1.1
01/21/2019 20:00 4.59 1250.0 0.0
01/21/2019 19:00 4.59 1250.0 -1.1
01/21/2019 18:00 4.54 1220.0 -1.4
01/21/2019 17:00 4.57 1230.0 -1.2
01/21/2019 16:00 4.56 1230.0 -0.7
01/21/2019 15:00 4.58 1240.0 -0.5
01/21/2019 14:00 4.56 1230.0 -0.5
01/21/2019 13:00 4.51 1200.0 0.0
01/21/2019 12:00 4.43 1150.0 -1.1
01/21/2019 11:00 4.40 1130.0 -2.3
01/21/2019 10:00 4.39 1130.0 -2.7
01/21/2019 09:00 4.39 1130.0 -2.8
01/21/2019 08:00 4.37 1120.0 -2.6
01/21/2019 07:00 4.36 1110.0 -2.3
01/21/2019 06:00 4.35 1100.0 -2.0
01/21/2019 05:00 4.36 1110.0 -2.5
01/21/2019 04:00 4.34 1100.0 -2.7
01/21/2019 03:00 4.32 1090.0 -2.3
01/21/2019 02:00 4.34 1100.0 -2.1
01/21/2019 01:00 4.30 1070.0 -0.7
01/21/2019 00:00 4.36 1110.0 0.2
01/20/2019 23:00 4.34 1100.0 1.1
01/20/2019 22:00 4.32 1090.0 2.3
01/20/2019 21:00 4.34 1100.0 4.7
01/20/2019 20:00 4.30 1070.0 7.8
01/20/2019 19:00 4.31 1080.0 13.4
01/20/2019 18:00 4.34 1100.0 18.7
01/20/2019 17:00 4.36 1110.0 20.2
01/20/2019 16:00 4.36 1110.0 19.0
01/20/2019 15:00 4.36 1110.0 18.6
01/20/2019 14:00 4.35 1100.0 16.3
01/20/2019 13:00 4.36 1110.0 15.3
01/20/2019 12:00 4.35 1100.0 14.6
01/20/2019 11:00 4.35 1100.0 14.3
01/20/2019 10:00 4.35 1100.0 13.8
01/20/2019 09:00 4.35 1100.0 12.0
01/20/2019 08:00 4.35 1100.0 11.1
01/20/2019 07:00 4.34 1100.0 10.5
01/20/2019 06:00 4.34 1100.0 10.4
01/20/2019 05:00 4.34 1100.0 10.9
01/20/2019 04:00 4.35 1100.0 11.1
01/20/2019 03:00 4.34 1100.0 12.1
01/20/2019 02:00 4.35 1100.0 13.0
01/20/2019 01:00 4.34 1100.0 13.6
01/20/2019 00:00 4.34 1100.0 14.0
01/19/2019 23:00 4.35 1100.0 14.9
01/19/2019 22:00 4.34 1100.0 16.1
01/19/2019 21:00 4.35 1100.0 17.4
01/19/2019 20:00 4.34 1100.0 18.8
01/19/2019 19:00 4.35 1100.0 19.6
01/19/2019 18:00 4.37 1120.0 19.7
01/19/2019 17:00 4.38 1120.0 23.1
01/19/2019 16:00 4.39 1130.0 24.0
01/19/2019 15:00 4.41 1140.0 24.6
01/19/2019 14:00 4.41 1140.0 25.0
01/19/2019 13:00 4.44 1160.0 24.8
01/19/2019 12:00 4.45 1160.0 25.5
01/19/2019 11:00 4.47 1170.0 24.8
01/19/2019 10:00 4.50 1190.0 23.9
01/19/2019 09:00 4.50 1190.0 19.2
01/19/2019 08:00 4.50 1190.0 18.7
01/19/2019 07:00 4.50 1190.0 17.9
01/19/2019 06:00 4.51 1200.0 18.7
01/19/2019 05:00 4.50 1190.0 19.7
01/19/2019 04:00 4.52 1200.0 21.7
01/19/2019 03:00 4.51 1200.0 23.2
01/19/2019 02:00 4.52 1200.0 25.0
01/19/2019 01:00 4.53 1210.0 23.4
01/19/2019 00:00 4.50 1190.0 25.2
01/18/2019 23:00 4.52 1200.0 24.3
01/18/2019 22:00 4.51 1200.0 22.6
01/18/2019 21:00 4.52 1200.0 22.1
01/18/2019 20:00 4.53 1210.0 21.4
01/18/2019 19:00 4.54 1220.0 22.9
01/18/2019 18:00 4.58 1240.0 24.4
01/18/2019 17:00 4.59 1250.0 24.9
01/18/2019 16:00 4.60 1250.0 25.4
01/18/2019 15:00 4.61 1260.0 25.7
01/18/2019 14:00 4.62 1270.0 25.1
01/18/2019 13:00 4.63 1270.0 23.9
01/18/2019 12:00 4.65 1280.0 22.2
01/18/2019 11:00 4.66 1290.0 20.6
01/18/2019 10:00 4.67 1300.0 19.1
01/18/2019 09:00 4.69 1310.0 17.6
01/18/2019 08:00 4.69 1310.0 17.1
01/18/2019 07:00 4.70 1310.0 16.6
01/18/2019 06:00 4.70 1310.0 16.3
01/18/2019 05:00 4.71 1320.0 15.9
01/18/2019 04:00 4.72 1330.0 16.0
01/18/2019 03:00 4.73 1330.0 16.2
01/18/2019 02:00 4.73 1330.0 15.8
01/18/2019 01:00 4.74 1340.0 15.3
01/18/2019 00:00 4.71 1320.0 14.9
01/17/2019 23:00 4.72 1330.0 14.5
01/17/2019 22:00 4.73 1330.0 14.7
01/17/2019 21:00 4.73 1330.0 14.6
01/17/2019 20:00 4.74 1340.0 14.9
01/17/2019 19:00 4.74 1340.0 14.7
01/17/2019 18:00 4.75 1350.0 16.7
01/17/2019 17:00 4.81 1380.0 17.8
01/17/2019 16:00 4.82 1390.0 19.3
01/17/2019 15:00 4.82 1390.0 20.3
01/17/2019 14:00 4.83 1400.0 20.5
01/17/2019 13:00 -- -- 19.5
01/17/2019 12:00 4.87 1420.0 18.5
01/17/2019 11:00 4.82 1390.0 15.2
01/17/2019 10:00 4.90 1440.0 14.7
01/17/2019 09:00 4.88 1430.0 11.5
01/17/2019 08:00 4.90 1440.0 6.5
01/17/2019 07:00 4.90 1440.0 5.5
01/17/2019 06:00 4.91 1450.0 6.4
01/17/2019 05:00 4.91 1450.0 7.1
01/17/2019 04:00 4.91 1450.0 7.7
01/17/2019 03:00 4.91 1450.0 10.0
01/17/2019 02:00 4.91 1450.0 11.6
01/17/2019 01:00 4.91 1450.0 13.5
01/17/2019 00:00 4.91 1450.0 16.6
01/16/2019 23:00 4.91 1450.0 19.9
01/16/2019 22:00 4.91 1450.0 24.0
01/16/2019 21:00 4.91 1450.0 27.2
01/16/2019 20:00 4.91 1450.0 29.4
01/16/2019 19:00 4.93 1460.0 31.7
01/16/2019 18:00 4.95 1470.0 32.2
01/16/2019 17:00 4.94 1470.0 32.4
01/16/2019 16:00 4.94 1470.0 34.4
01/16/2019 15:00 4.95 1470.0 35.2
01/16/2019 14:00 4.95 1470.0 34.9
01/16/2019 13:00 4.95 1470.0 33.1
01/16/2019 12:00 4.95 1470.0 33.1
01/16/2019 11:00 4.95 1470.0 30.6
01/16/2019 10:00 4.97 1490.0 27.0
01/16/2019 09:00 4.97 1490.0 26.3
01/16/2019 08:00 4.98 1490.0 21.1
01/16/2019 07:00 4.98 1490.0 20.5
01/16/2019 06:00 4.98 1490.0 18.6
01/16/2019 05:00 4.99 1500.0 17.1
01/16/2019 04:00 4.98 1490.0 16.8
01/16/2019 03:00 4.99 1500.0 17.8
01/16/2019 02:00 5.00 1510.0 19.2
01/16/2019 01:00 5.00 1510.0 22.5
01/16/2019 00:00 4.99 1500.0 23.6
01/15/2019 23:00 4.98 1490.0 23.7
01/15/2019 22:00 4.99 1500.0 23.6
01/15/2019 21:00 5.00 1510.0 22.5
01/15/2019 20:00 5.00 1510.0 21.7
01/15/2019 19:00 5.01 1510.0 22.5
01/15/2019 18:00 5.04 1530.0 25.5
01/15/2019 17:00 5.03 1530.0 26.6
01/15/2019 16:00 5.04 1530.0 27.7
01/15/2019 15:00 5.04 1530.0 30.1
01/15/2019 14:00 5.04 1530.0 30.6
01/15/2019 13:00 5.05 1540.0 30.4
01/15/2019 12:00 5.06 1550.0 30.8
01/15/2019 11:00 5.06 1550.0 29.4
01/15/2019 10:00 5.06 1550.0 29.1
01/15/2019 09:00 5.07 1550.0 25.3
01/15/2019 08:00 5.07 1550.0 22.0
01/15/2019 07:00 5.08 1560.0 18.4
01/15/2019 06:00 5.07 1550.0 17.6
01/15/2019 05:00 5.07 1550.0 18.0
01/15/2019 04:00 5.08 1560.0 14.9
01/15/2019 03:00 5.10 1570.0 13.5
01/15/2019 02:00 5.09 1570.0 11.3
01/15/2019 01:00 5.10 1570.0 11.4
01/15/2019 00:00 5.07 1550.0 12.8
01/14/2019 23:00 5.08 1560.0 13.7
01/14/2019 22:00 5.10 1570.0 15.4
01/14/2019 21:00 5.09 1570.0 15.9
01/14/2019 20:00 5.10 1570.0 18.0
01/14/2019 19:00 5.11 1580.0 19.8
01/14/2019 18:00 5.11 1580.0 23.7
01/14/2019 17:00 5.12 1590.0 24.6
01/14/2019 16:00 5.13 1590.0 27.2
01/14/2019 15:00 5.14 1600.0 29.4
01/14/2019 14:00 5.14 1600.0 28.6
01/14/2019 13:00 5.13 1590.0 26.6
01/14/2019 12:00 5.14 1600.0 23.2
01/14/2019 11:00 5.13 1590.0 19.4
01/14/2019 10:00 5.14 1600.0 15.1
01/14/2019 09:00 5.14 1600.0 9.0
01/14/2019 08:00 5.14 1600.0 3.4
01/14/2019 07:00 5.14 1600.0 1.8
01/14/2019 06:00 5.14 1600.0 1.7
01/14/2019 05:00 5.15 1610.0 2.5
01/14/2019 04:00 5.15 1610.0 3.4
01/14/2019 03:00 5.16 1610.0 3.8
01/14/2019 02:00 5.16 1610.0 4.4
01/14/2019 01:00 5.16 1610.0 5.1
01/14/2019 00:00 5.15 1610.0 6.4
01/13/2019 23:00 5.15 1610.0 7.5
01/13/2019 22:00 5.16 1610.0 7.9
01/13/2019 21:00 5.16 1610.0 9.0
01/13/2019 20:00 5.16 1610.0 10.7
01/13/2019 19:00 5.16 1610.0 13.3
01/13/2019 18:00 5.18 1630.0 17.0
01/13/2019 17:00 5.17 1620.0 19.4
01/13/2019 16:00 5.18 1630.0 21.3
01/13/2019 15:00 5.19 1630.0 23.1
01/13/2019 14:00 5.17 1620.0 23.2
01/13/2019 13:00 5.18 1630.0 21.1
01/13/2019 12:00 5.19 1630.0 19.7
01/13/2019 11:00 5.18 1630.0 18.1
01/13/2019 10:00 5.20 1640.0 16.3
01/13/2019 09:00 5.19 1630.0 11.5
01/13/2019 08:00 5.19 1630.0 4.2
01/13/2019 07:00 5.20 1640.0 3.3
01/13/2019 06:00 5.20 1640.0 4.6
01/13/2019 05:00 5.20 1640.0 6.1
01/13/2019 04:00 5.20 1640.0 7.8
01/13/2019 03:00 5.21 1650.0 7.9
01/13/2019 02:00 5.21 1650.0 7.1
01/13/2019 01:00 5.22 1650.0 8.8
01/13/2019 00:00 5.20 1640.0 9.7
01/12/2019 23:00 5.20 1640.0 10.4
01/12/2019 22:00 5.21 1650.0 11.1
01/12/2019 21:00 5.21 1650.0 11.7
01/12/2019 20:00 5.22 1650.0 12.7
01/12/2019 19:00 5.22 1650.0 13.6
01/12/2019 18:00 5.24 1670.0 13.9
01/12/2019 17:00 5.24 1670.0 15.7
01/12/2019 16:00 5.25 1670.0 16.8
01/12/2019 15:00 5.24 1670.0 17.7
01/12/2019 14:00 5.24 1670.0 17.5
01/12/2019 13:00 5.24 1670.0 17.0
01/12/2019 12:00 5.24 1670.0 17.4
01/12/2019 11:00 5.26 1680.0 16.5
01/12/2019 10:00 5.24 1670.0 15.5
01/12/2019 09:00 5.26 1680.0 11.9
01/12/2019 08:00 5.26 1680.0 6.7
01/12/2019 07:00 5.26 1680.0 5.2
01/12/2019 06:00 5.27 1690.0 5.4
01/12/2019 05:00 5.27 1690.0 5.6
01/12/2019 04:00 5.27 1690.0 5.6
01/12/2019 03:00 5.28 1690.0 5.5
01/12/2019 02:00 5.30 1710.0 6.4
01/12/2019 01:00 5.29 1700.0 6.5
01/12/2019 00:00 5.27 1690.0 6.7
01/11/2019 23:00 5.27 1690.0 6.9
01/11/2019 22:00 5.28 1690.0 7.0
01/11/2019 21:00 5.30 1710.0 7.0
01/11/2019 20:00 5.29 1700.0 7.3
01/11/2019 19:00 5.31 1710.0 8.3
01/11/2019 18:00 5.32 1720.0 10.9
01/11/2019 17:00 5.33 1730.0 12.6
01/11/2019 16:00 5.33 1730.0 14.9
01/11/2019 15:00 5.33 1730.0 16.8
01/11/2019 14:00 5.33 1730.0 17.9
01/11/2019 13:00 5.34 1740.0 18.8
01/11/2019 12:00 5.34 1740.0 18.2
01/11/2019 11:00 5.33 1730.0 16.9
01/11/2019 10:00 5.35 1740.0 18.2
01/11/2019 09:00 5.37 1760.0 17.2
01/11/2019 08:00 5.37 1760.0 14.5
01/11/2019 07:00 5.37 1760.0 14.0
01/11/2019 06:00 5.38 1760.0 13.6
01/11/2019 05:00 5.39 1770.0 13.6
01/11/2019 04:00 5.39 1770.0 14.0
01/11/2019 03:00 5.40 1780.0 14.9
01/11/2019 02:00 5.39 1770.0 16.0
01/11/2019 01:00 5.42 1790.0 17.0
01/11/2019 00:00 5.39 1770.0 17.7
01/10/2019 23:00 5.39 1770.0 18.3
01/10/2019 22:00 5.40 1780.0 18.7
01/10/2019 21:00 5.39 1770.0 19.5
01/10/2019 20:00 5.42 1790.0 20.1
01/10/2019 19:00 5.42 1790.0 21.7
01/10/2019 18:00 5.45 1810.0 22.6
01/10/2019 17:00 5.46 1820.0 23.4
01/10/2019 16:00 5.44 1810.0 24.6
01/10/2019 15:00 5.46 1820.0 25.7
01/10/2019 14:00 5.46 1820.0 26.6
01/10/2019 13:00 5.46 1820.0 27.7
01/10/2019 12:00 5.47 1830.0 29.2
01/10/2019 11:00 5.47 1830.0 29.2
01/10/2019 10:00 5.48 1830.0 29.3
01/10/2019 09:00 5.48 1830.0 29.0
01/10/2019 08:00 5.46 1820.0 28.1
01/10/2019 07:00 5.49 1840.0 28.1
01/10/2019 06:00 5.50 1850.0 28.5
01/10/2019 05:00 5.50 1850.0 29.0
01/10/2019 04:00 -- -- --
01/10/2019 03:00 -- -- --
01/10/2019 02:00 -- -- --